sensor_id;sensor_type;location;lat;lon;timestamp;P1;durP1;ratioP1;P2;durP2;ratioP2
20104;SDS011;10212;42.714;23.310;2023-09-18T00:04:23;28.50;;;21.20;;
20104;SDS011;10212;42.714;23.310;2023-09-18T00:14:24;31.45;;;21.65;;
20104;SDS011;10212;42.714;23.310;2023-09-18T00:24:25;28.15;;;21.30;;
20104;SDS011;10212;42.714;23.310;2023-09-18T00:34:26;28.20;;;21.27;;
20104;SDS011;10212;42.714;23.310;2023-09-18T00:44:26;28.58;;;22.05;;
20104;SDS011;10212;42.714;23.310;2023-09-18T00:54:27;23.45;;;18.85;;
20104;SDS011;10212;42.714;23.310;2023-09-18T01:04:28;23.67;;;17.65;;
20104;SDS011;10212;42.714;23.310;2023-09-18T01:14:33;20.50;;;15.93;;
20104;SDS011;10212;42.714;23.310;2023-09-18T01:24:39;20.00;;;14.57;;
20104;SDS011;10212;42.714;23.310;2023-09-18T01:34:50;19.40;;;14.70;;
20104;SDS011;10212;42.714;23.310;2023-09-18T01:44:53;17.75;;;13.82;;
20104;SDS011;10212;42.714;23.310;2023-09-18T01:54:54;19.23;;;13.68;;
20104;SDS011;10212;42.714;23.310;2023-09-18T02:04:55;20.77;;;14.57;;
20104;SDS011;10212;42.714;23.310;2023-09-18T02:14:55;22.27;;;15.88;;
20104;SDS011;10212;42.714;23.310;2023-09-18T02:24:58;27.92;;;18.13;;
20104;SDS011;10212;42.714;23.310;2023-09-18T02:34:58;21.30;;;16.38;;
20104;SDS011;10212;42.714;23.310;2023-09-18T02:44:59;17.02;;;13.68;;
20104;SDS011;10212;42.714;23.310;2023-09-18T02:54:59;14.93;;;12.03;;
20104;SDS011;10212;42.714;23.310;2023-09-18T03:05:00;15.73;;;12.07;;
20104;SDS011;10212;42.714;23.310;2023-09-18T03:15:00;15.88;;;11.95;;
20104;SDS011;10212;42.714;23.310;2023-09-18T03:25:01;17.15;;;11.70;;
20104;SDS011;10212;42.714;23.310;2023-09-18T03:35:02;17.67;;;12.95;;
20104;SDS011;10212;42.714;23.310;2023-09-18T03:45:05;19.13;;;13.50;;
20104;SDS011;10212;42.714;23.310;2023-09-18T03:55:06;22.00;;;15.85;;
20104;SDS011;10212;42.714;23.310;2023-09-18T04:05:07;23.30;;;16.50;;
20104;SDS011;10212;42.714;23.310;2023-09-18T04:15:09;25.30;;;17.45;;
20104;SDS011;10212;42.714;23.310;2023-09-18T04:25:10;26.52;;;18.02;;
20104;SDS011;10212;42.714;23.310;2023-09-18T04:35:11;26.02;;;17.63;;
20104;SDS011;10212;42.714;23.310;2023-09-18T04:45:13;26.70;;;16.35;;
20104;SDS011;10212;42.714;23.310;2023-09-18T04:55:13;26.00;;;16.30;;
20104;SDS011;10212;42.714;23.310;2023-09-18T05:05:14;25.48;;;16.38;;
20104;SDS011;10212;42.714;23.310;2023-09-18T05:15:14;23.15;;;16.08;;
20104;SDS011;10212;42.714;23.310;2023-09-18T05:25:15;24.75;;;15.75;;
20104;SDS011;10212;42.714;23.310;2023-09-18T05:35:16;21.27;;;14.63;;
20104;SDS011;10212;42.714;23.310;2023-09-18T05:45:17;23.60;;;16.17;;
20104;SDS011;10212;42.714;23.310;2023-09-18T05:55:18;27.25;;;18.33;;
20104;SDS011;10212;42.714;23.310;2023-09-18T06:05:18;24.50;;;17.02;;
20104;SDS011;10212;42.714;23.310;2023-09-18T06:15:22;30.73;;;16.88;;
20104;SDS011;10212;42.714;23.310;2023-09-18T06:25:22;27.15;;;15.48;;
20104;SDS011;10212;42.714;23.310;2023-09-18T06:35:23;19.58;;;13.05;;
20104;SDS011;10212;42.714;23.310;2023-09-18T06:45:23;20.20;;;13.20;;
20104;SDS011;10212;42.714;23.310;2023-09-18T06:55:24;22.80;;;15.20;;
20104;SDS011;10212;42.714;23.310;2023-09-18T07:05:24;22.38;;;15.18;;
20104;SDS011;10212;42.714;23.310;2023-09-18T07:15:25;27.08;;;16.00;;
20104;SDS011;10212;42.714;23.310;2023-09-18T07:25:25;25.13;;;16.85;;
20104;SDS011;10212;42.714;23.310;2023-09-18T07:35:26;24.00;;;16.63;;
20104;SDS011;10212;42.714;23.310;2023-09-18T07:45:27;22.35;;;16.10;;
20104;SDS011;10212;42.714;23.310;2023-09-18T07:55:27;20.50;;;14.77;;
20104;SDS011;10212;42.714;23.310;2023-09-18T08:05:29;21.60;;;15.32;;
20104;SDS011;10212;42.714;23.310;2023-09-18T08:15:31;21.52;;;14.43;;
20104;SDS011;10212;42.714;23.310;2023-09-18T08:25:32;17.65;;;13.60;;
20104;SDS011;10212;42.714;23.310;2023-09-18T08:35:32;20.50;;;14.52;;
20104;SDS011;10212;42.714;23.310;2023-09-18T08:45:51;18.45;;;12.88;;
20104;SDS011;10212;42.714;23.310;2023-09-18T08:55:55;20.65;;;12.13;;
20104;SDS011;10212;42.714;23.310;2023-09-18T09:05:58;18.90;;;13.15;;
20104;SDS011;10212;42.714;23.310;2023-09-18T09:16:01;17.40;;;11.30;;
20104;SDS011;10212;42.714;23.310;2023-09-18T09:26:12;16.30;;;11.80;;
20104;SDS011;10212;42.714;23.310;2023-09-18T09:36:13;13.55;;;9.02;;
20104;SDS011;10212;42.714;23.310;2023-09-18T09:46:16;15.88;;;11.25;;
20104;SDS011;10212;42.714;23.310;2023-09-18T09:56:18;12.30;;;9.93;;
20104;SDS011;10212;42.714;23.310;2023-09-18T10:06:22;15.48;;;10.27;;
20104;SDS011;10212;42.714;23.310;2023-09-18T10:16:23;11.02;;;9.05;;
20104;SDS011;10212;42.714;23.310;2023-09-18T10:26:27;12.43;;;9.50;;
20104;SDS011;10212;42.714;23.310;2023-09-18T10:36:29;10.43;;;8.00;;
20104;SDS011;10212;42.714;23.310;2023-09-18T10:46:31;13.63;;;7.30;;
20104;SDS011;10212;42.714;23.310;2023-09-18T10:56:32;10.05;;;7.60;;
20104;SDS011;10212;42.714;23.310;2023-09-18T11:16:55;11.25;;;6.53;;
20104;SDS011;10212;42.714;23.310;2023-09-18T11:26:56;8.98;;;5.78;;
20104;SDS011;10212;42.714;23.310;2023-09-18T11:36:57;7.40;;;5.90;;
20104;SDS011;10212;42.714;23.310;2023-09-18T11:46:58;7.60;;;6.13;;
20104;SDS011;10212;42.714;23.310;2023-09-18T11:57:03;6.07;;;5.47;;
20104;SDS011;10212;42.714;23.310;2023-09-18T12:07:07;9.03;;;5.87;;
20104;SDS011;10212;42.714;23.310;2023-09-18T12:17:13;7.40;;;5.97;;
20104;SDS011;10212;42.714;23.310;2023-09-18T12:37:17;9.30;;;6.13;;
20104;SDS011;10212;42.714;23.310;2023-09-18T12:47:18;9.60;;;5.82;;
20104;SDS011;10212;42.714;23.310;2023-09-18T12:57:18;6.60;;;4.90;;
20104;SDS011;10212;42.714;23.310;2023-09-18T13:07:20;7.60;;;5.60;;
20104;SDS011;10212;42.714;23.310;2023-09-18T13:17:21;8.95;;;4.90;;
20104;SDS011;10212;42.714;23.310;2023-09-18T13:27:21;8.05;;;5.30;;
20104;SDS011;10212;42.714;23.310;2023-09-18T13:37:23;8.45;;;5.53;;
20104;SDS011;10212;42.714;23.310;2023-09-18T13:47:23;7.63;;;5.28;;
20104;SDS011;10212;42.714;23.310;2023-09-18T13:57:24;13.55;;;10.32;;
20104;SDS011;10212;42.714;23.310;2023-09-18T14:07:25;6.32;;;5.25;;
20104;SDS011;10212;42.714;23.310;2023-09-18T14:17:25;13.88;;;5.18;;
20104;SDS011;10212;42.714;23.310;2023-09-18T14:27:26;10.53;;;5.40;;
20104;SDS011;10212;42.714;23.310;2023-09-18T14:37:26;8.00;;;5.00;;
20104;SDS011;10212;42.714;23.310;2023-09-18T14:47:27;8.43;;;7.27;;
20104;SDS011;10212;42.714;23.310;2023-09-18T14:57:28;7.97;;;5.70;;
20104;SDS011;10212;42.714;23.310;2023-09-18T15:07:29;7.60;;;6.25;;
20104;SDS011;10212;42.714;23.310;2023-09-18T15:17:29;7.80;;;5.63;;
20104;SDS011;10212;42.714;23.310;2023-09-18T15:27:29;10.82;;;5.47;;
20104;SDS011;10212;42.714;23.310;2023-09-18T15:37:30;7.45;;;5.07;;
20104;SDS011;10212;42.714;23.310;2023-09-18T15:47:30;12.15;;;5.13;;
20104;SDS011;10212;42.714;23.310;2023-09-18T15:57:31;7.45;;;5.22;;
20104;SDS011;10212;42.714;23.310;2023-09-18T16:07:36;8.68;;;4.90;;
20104;SDS011;10212;42.714;23.310;2023-09-18T16:17:39;9.15;;;5.32;;
20104;SDS011;10212;42.714;23.310;2023-09-18T16:27:39;9.55;;;5.43;;
20104;SDS011;10212;42.714;23.310;2023-09-18T16:37:42;10.63;;;6.40;;
20104;SDS011;10212;42.714;23.310;2023-09-18T16:47:45;9.45;;;5.65;;
20104;SDS011;10212;42.714;23.310;2023-09-18T16:57:46;11.18;;;7.38;;
20104;SDS011;10212;42.714;23.310;2023-09-18T17:07:47;9.23;;;5.80;;
20104;SDS011;10212;42.714;23.310;2023-09-18T17:17:49;15.85;;;8.93;;
20104;SDS011;10212;42.714;23.310;2023-09-18T17:27:54;12.55;;;8.50;;
20104;SDS011;10212;42.714;23.310;2023-09-18T17:37:55;21.98;;;10.75;;
20104;SDS011;10212;42.714;23.310;2023-09-18T17:47:56;10.65;;;6.47;;
20104;SDS011;10212;42.714;23.310;2023-09-18T17:57:56;7.38;;;6.57;;
20104;SDS011;10212;42.714;23.310;2023-09-18T18:07:57;7.33;;;6.17;;
20104;SDS011;10212;42.714;23.310;2023-09-18T18:17:58;10.32;;;6.80;;
20104;SDS011;10212;42.714;23.310;2023-09-18T18:27:59;13.25;;;7.25;;
20104;SDS011;10212;42.714;23.310;2023-09-18T18:38:00;9.82;;;6.32;;
20104;SDS011;10212;42.714;23.310;2023-09-18T18:48:01;9.45;;;6.47;;
20104;SDS011;10212;42.714;23.310;2023-09-18T18:58:02;10.70;;;7.83;;
20104;SDS011;10212;42.714;23.310;2023-09-18T19:08:03;8.82;;;6.75;;
20104;SDS011;10212;42.714;23.310;2023-09-18T19:18:05;8.70;;;5.38;;
20104;SDS011;10212;42.714;23.310;2023-09-18T19:28:06;11.02;;;6.53;;
20104;SDS011;10212;42.714;23.310;2023-09-18T19:38:07;7.65;;;5.50;;
20104;SDS011;10212;42.714;23.310;2023-09-18T19:48:08;6.57;;;5.03;;
20104;SDS011;10212;42.714;23.310;2023-09-18T19:58:09;9.33;;;5.10;;
20104;SDS011;10212;42.714;23.310;2023-09-18T20:08:09;7.97;;;4.80;;
20104;SDS011;10212;42.714;23.310;2023-09-18T20:18:10;5.67;;;4.20;;
20104;SDS011;10212;42.714;23.310;2023-09-18T20:28:12;7.68;;;4.78;;
20104;SDS011;10212;42.714;23.310;2023-09-18T20:38:13;7.30;;;4.38;;
20104;SDS011;10212;42.714;23.310;2023-09-18T20:48:14;11.43;;;8.17;;
20104;SDS011;10212;42.714;23.310;2023-09-18T20:58:14;6.95;;;5.03;;
20104;SDS011;10212;42.714;23.310;2023-09-18T21:08:15;7.68;;;4.10;;
20104;SDS011;10212;42.714;23.310;2023-09-18T21:18:15;6.57;;;4.47;;
20104;SDS011;10212;42.714;23.310;2023-09-18T21:28:19;6.07;;;4.53;;
20104;SDS011;10212;42.714;23.310;2023-09-18T21:38:20;5.88;;;4.10;;
20104;SDS011;10212;42.714;23.310;2023-09-18T21:48:21;3.88;;;3.50;;
20104;SDS011;10212;42.714;23.310;2023-09-18T21:58:21;5.38;;;3.70;;
20104;SDS011;10212;42.714;23.310;2023-09-18T22:08:22;5.93;;;3.80;;
20104;SDS011;10212;42.714;23.310;2023-09-18T22:18:22;5.15;;;3.45;;
20104;SDS011;10212;42.714;23.310;2023-09-18T22:28:23;7.28;;;4.10;;
20104;SDS011;10212;42.714;23.310;2023-09-18T22:38:33;4.90;;;3.67;;
20104;SDS011;10212;42.714;23.310;2023-09-18T22:59:17;5.32;;;3.88;;
20104;SDS011;10212;42.714;23.310;2023-09-18T23:09:17;6.53;;;4.13;;
20104;SDS011;10212;42.714;23.310;2023-09-18T23:19:18;7.32;;;4.05;;
20104;SDS011;10212;42.714;23.310;2023-09-18T23:29:21;7.90;;;3.90;;
20104;SDS011;10212;42.714;23.310;2023-09-18T23:39:21;6.47;;;3.80;;
20104;SDS011;10212;42.714;23.310;2023-09-18T23:49:23;10.48;;;4.35;;
20104;SDS011;10212;42.714;23.310;2023-09-18T23:59:23;6.25;;;4.38;;
